createdAt,value
2018-03-21T00:00:54.694Z,2.93
2018-03-21T00:01:54.671Z,2.93
2018-03-21T00:02:54.656Z,2.94
2018-03-21T00:03:54.624Z,2.94
2018-03-21T00:04:54.651Z,2.90
2018-03-21T00:05:54.591Z,2.69
2018-03-21T00:06:54.563Z,2.71
2018-03-21T00:07:54.536Z,2.76
2018-03-21T00:08:54.512Z,2.68
2018-03-21T00:09:54.493Z,2.68
2018-03-21T00:10:54.470Z,2.69
2018-03-21T00:11:54.439Z,2.71
2018-03-21T00:12:54.420Z,2.89
2018-03-21T00:13:54.400Z,2.93
2018-03-21T00:14:54.377Z,2.93
2018-03-21T00:15:54.360Z,3.07
2018-03-21T00:16:54.330Z,2.86
2018-03-21T00:17:54.310Z,2.87
2018-03-21T00:18:54.306Z,2.94
2018-03-21T00:19:54.270Z,2.93
2018-03-21T00:20:54.239Z,2.96
2018-03-21T00:21:54.217Z,2.89
2018-03-21T00:22:54.202Z,2.89
2018-03-21T00:23:54.171Z,2.82
2018-03-21T00:24:54.147Z,2.65
2018-03-21T00:25:54.126Z,2.89
2018-03-21T00:26:54.104Z,2.87
2018-03-21T00:27:54.081Z,2.93
2018-03-21T00:28:54.059Z,2.94
2018-03-21T00:29:54.044Z,2.90
2018-03-21T00:30:54.010Z,2.91
2018-03-21T00:31:53.990Z,2.82
2018-03-21T00:32:53.968Z,2.75
2018-03-21T00:33:53.952Z,2.65
2018-03-21T00:34:53.930Z,2.78
2018-03-21T00:35:53.901Z,2.76
2018-03-21T00:36:53.879Z,2.96
2018-03-21T00:37:53.855Z,2.94
2018-03-21T00:38:53.833Z,2.99
2018-03-21T00:39:53.811Z,2.99
2018-03-21T00:40:53.793Z,2.97
2018-03-21T00:41:53.775Z,3.04
2018-03-21T00:42:53.750Z,2.94
2018-03-21T00:43:53.718Z,3.12
2018-03-21T00:44:53.699Z,2.96
2018-03-21T00:45:53.675Z,2.90
2018-03-21T00:46:53.650Z,2.99
2018-03-21T00:47:53.628Z,2.90
2018-03-21T00:48:53.610Z,2.97
2018-03-21T00:49:53.584Z,2.91
2018-03-21T00:50:53.573Z,3.07
2018-03-21T00:51:53.537Z,2.84
2018-03-21T00:52:53.514Z,3.02
2018-03-21T00:53:53.495Z,3.00
2018-03-21T00:54:53.470Z,2.94
2018-03-21T00:55:53.446Z,2.97
2018-03-21T00:56:53.423Z,3.05
2018-03-21T00:57:53.407Z,2.97
2018-03-21T00:58:53.390Z,2.97
2018-03-21T00:59:53.362Z,2.97
2018-03-21T01:00:53.338Z,2.81
2018-03-21T01:01:53.313Z,3.07
2018-03-21T01:02:53.289Z,2.99
2018-03-21T01:03:53.265Z,2.97
2018-03-21T01:04:53.248Z,2.96
2018-03-21T01:05:53.221Z,2.97
2018-03-21T01:06:53.200Z,2.97
2018-03-21T01:07:53.176Z,2.97
2018-03-21T01:08:53.154Z,2.96
2018-03-21T01:09:53.128Z,2.99
2018-03-21T01:10:53.108Z,2.94
2018-03-21T01:11:53.087Z,2.96
2018-03-21T01:12:53.068Z,2.99
2018-03-21T01:13:53.046Z,2.94
2018-03-21T01:14:53.020Z,3.07
2018-03-21T01:15:53.000Z,3.00
2018-03-21T01:16:52.979Z,2.97
2018-03-21T01:17:52.953Z,3.04
2018-03-21T01:18:52.932Z,3.09
2018-03-21T01:19:52.911Z,2.99
2018-03-21T01:20:52.890Z,2.97
2018-03-21T01:21:52.860Z,2.94
2018-03-21T01:22:52.845Z,2.79
2018-03-21T01:23:52.821Z,2.68
2018-03-21T01:24:52.793Z,2.78
2018-03-21T01:25:52.770Z,2.68
2018-03-21T01:26:52.749Z,2.65
2018-03-21T01:27:52.738Z,2.68
2018-03-21T01:28:52.714Z,2.63
2018-03-21T01:29:52.693Z,2.87
2018-03-21T01:30:52.661Z,2.78
2018-03-21T01:31:52.636Z,2.65
2018-03-21T01:32:52.617Z,2.78
2018-03-21T01:33:52.592Z,2.65
2018-03-21T01:34:52.570Z,2.71
2018-03-21T01:35:52.550Z,2.82
2018-03-21T01:36:52.531Z,2.69
2018-03-21T01:37:52.499Z,2.63
2018-03-21T01:38:52.477Z,2.71
2018-03-21T01:39:52.460Z,2.75
2018-03-21T01:40:52.436Z,2.71
2018-03-21T01:41:52.410Z,2.81
2018-03-21T01:42:52.389Z,2.73
2018-03-21T01:43:52.370Z,2.91
2018-03-21T01:44:52.345Z,2.87
2018-03-21T01:45:52.319Z,2.82
2018-03-21T01:46:52.299Z,2.97
2018-03-21T01:47:52.275Z,2.96
2018-03-21T01:48:52.256Z,2.86
2018-03-21T01:49:52.229Z,2.91
2018-03-21T01:50:52.221Z,2.97
2018-03-21T01:51:52.190Z,2.87
2018-03-21T01:52:52.160Z,2.91
2018-03-21T01:53:52.141Z,2.94
2018-03-21T01:54:52.120Z,2.96
2018-03-21T01:55:52.097Z,2.91
2018-03-21T01:56:52.079Z,2.86
2018-03-21T01:57:52.050Z,2.93
2018-03-21T01:58:52.030Z,2.82
2018-03-21T01:59:52.008Z,2.86
2018-03-21T02:00:51.985Z,2.94
2018-03-21T02:01:51.957Z,2.99
2018-03-21T02:02:51.935Z,2.96
2018-03-21T02:03:51.917Z,2.97
2018-03-21T02:04:51.891Z,2.97
2018-03-21T02:05:51.874Z,2.91
2018-03-21T02:06:51.846Z,2.96
2018-03-21T02:07:51.828Z,2.84
2018-03-21T02:08:51.810Z,3.00
2018-03-21T02:09:51.780Z,2.89
2018-03-21T02:10:51.770Z,2.81
2018-03-21T02:11:51.742Z,2.89
2018-03-21T02:12:51.711Z,2.91
2018-03-21T02:13:51.689Z,2.91
2018-03-21T02:14:51.670Z,2.87
2018-03-21T02:15:51.697Z,2.87
2018-03-21T02:16:51.619Z,2.76
2018-03-21T02:17:51.612Z,2.81
2018-03-21T02:18:51.579Z,2.81
2018-03-21T02:19:51.553Z,2.86
2018-03-21T02:20:51.535Z,2.76
2018-03-21T02:21:51.562Z,2.58
2018-03-21T02:22:51.498Z,2.76
2018-03-21T02:23:51.465Z,2.76
2018-03-21T02:24:51.438Z,2.68
2018-03-21T02:25:51.432Z,2.68
2018-03-21T02:26:51.407Z,2.78
2018-03-21T02:27:51.384Z,2.66
2018-03-21T02:28:51.350Z,2.71
2018-03-21T02:29:51.329Z,2.60
2018-03-21T02:30:51.310Z,2.65
2018-03-21T02:31:51.331Z,2.68
2018-03-21T02:32:51.261Z,2.53
2018-03-21T02:33:51.243Z,2.61
2018-03-21T02:34:51.214Z,2.69
2018-03-21T02:35:51.188Z,2.65
2018-03-21T02:36:51.176Z,2.69
2018-03-21T02:37:51.148Z,2.68
2018-03-21T02:38:51.130Z,2.60
2018-03-21T02:39:51.105Z,2.71
2018-03-21T02:40:51.078Z,2.65
2018-03-21T02:41:51.057Z,2.63
2018-03-21T02:42:51.043Z,2.65
2018-03-21T02:43:51.012Z,2.60
2018-03-21T02:44:50.996Z,2.60
2018-03-21T02:45:50.977Z,2.68
2018-03-21T02:46:50.947Z,2.69
2018-03-21T02:47:50.919Z,2.63
2018-03-21T02:48:50.913Z,2.69
2018-03-21T02:49:50.877Z,2.57
2018-03-21T02:50:50.858Z,2.57
2018-03-21T02:51:50.829Z,2.60
2018-03-21T02:52:50.810Z,2.58
2018-03-21T02:53:50.790Z,2.58
2018-03-21T02:54:50.765Z,2.60
2018-03-21T02:55:50.744Z,2.58
2018-03-21T02:56:50.720Z,2.60
2018-03-21T02:57:50.705Z,2.63
2018-03-21T02:58:50.671Z,2.69
2018-03-21T02:59:50.646Z,2.68
2018-03-21T03:00:50.627Z,2.60
2018-03-21T03:01:50.610Z,2.61
2018-03-21T03:02:50.582Z,2.65
2018-03-21T03:03:50.565Z,2.54
2018-03-21T03:04:50.541Z,2.55
2018-03-21T03:05:50.510Z,2.63
2018-03-21T03:06:50.493Z,2.58
2018-03-21T03:07:50.470Z,2.57
2018-03-21T03:08:50.498Z,2.54
2018-03-21T03:09:50.424Z,2.55
2018-03-21T03:10:50.399Z,2.57
2018-03-21T03:11:50.381Z,2.57
2018-03-21T03:12:50.357Z,2.54
2018-03-21T03:13:50.331Z,2.57
2018-03-21T03:14:50.309Z,2.61
2018-03-21T03:15:50.288Z,2.43
2018-03-21T03:16:50.263Z,2.53
2018-03-21T03:17:50.240Z,2.60
2018-03-21T03:18:50.214Z,2.45
2018-03-21T03:19:50.192Z,2.48
2018-03-21T03:20:50.169Z,2.43
2018-03-21T03:21:50.145Z,2.29
2018-03-21T03:22:50.123Z,2.29
2018-03-21T03:23:50.099Z,2.37
2018-03-21T03:24:50.077Z,2.50
2018-03-21T03:25:50.060Z,2.47
2018-03-21T03:26:50.040Z,2.45
2018-03-21T03:27:50.016Z,2.53
2018-03-21T03:28:49.991Z,2.40
2018-03-21T03:29:49.963Z,2.45
2018-03-21T03:30:49.945Z,2.36
2018-03-21T03:31:49.917Z,2.43
2018-03-21T03:32:49.896Z,2.47
2018-03-21T03:33:49.884Z,2.42
2018-03-21T03:34:49.851Z,2.40
2018-03-21T03:35:49.825Z,2.39
2018-03-21T03:36:49.808Z,2.45
2018-03-21T03:37:49.781Z,2.47
2018-03-21T03:38:49.762Z,2.40
2018-03-21T03:39:49.741Z,2.43
2018-03-21T03:40:49.711Z,2.48
2018-03-21T03:41:49.690Z,2.36
2018-03-21T03:42:49.668Z,2.33
2018-03-21T03:43:49.640Z,2.33
2018-03-21T03:44:49.620Z,2.35
2018-03-21T03:45:49.599Z,2.36
2018-03-21T03:46:49.577Z,2.32
2018-03-21T03:47:49.552Z,2.32
2018-03-21T03:48:49.524Z,2.29
2018-03-21T03:49:49.510Z,2.32
2018-03-21T03:50:49.482Z,2.29
2018-03-21T03:51:49.458Z,2.37
2018-03-21T03:52:49.441Z,2.33
2018-03-21T03:53:49.418Z,2.32
2018-03-21T03:54:49.391Z,2.35
2018-03-21T03:55:49.370Z,2.28
2018-03-21T03:56:49.351Z,2.32
2018-03-21T03:57:49.328Z,2.33
2018-03-21T03:58:49.300Z,2.30
2018-03-21T03:59:49.276Z,2.30
2018-03-21T04:00:49.250Z,2.40
2018-03-21T04:01:49.230Z,2.35
2018-03-21T04:02:49.206Z,2.36
2018-03-21T04:03:49.194Z,2.30
2018-03-21T04:04:49.161Z,2.32
2018-03-21T04:05:49.139Z,2.35
2018-03-21T04:06:49.116Z,2.32
2018-03-21T04:07:49.093Z,2.32
2018-03-21T04:08:49.069Z,2.32
2018-03-21T04:09:49.047Z,2.32
2018-03-21T04:10:49.020Z,2.25
2018-03-21T04:11:49.001Z,2.24
2018-03-21T04:12:48.980Z,2.21
2018-03-21T04:13:48.959Z,2.19
2018-03-21T04:14:48.929Z,2.11
2018-03-21T04:15:48.912Z,2.11
2018-03-21T04:16:48.886Z,2.21
2018-03-21T04:17:48.862Z,2.07
2018-03-21T04:18:48.841Z,2.12
2018-03-21T04:19:48.815Z,2.12
2018-03-21T04:20:48.794Z,2.11
2018-03-21T04:21:48.770Z,2.15
2018-03-21T04:22:48.749Z,2.12
2018-03-21T04:23:48.728Z,2.15
2018-03-21T04:24:48.753Z,2.04
2018-03-21T04:25:48.683Z,2.07
2018-03-21T04:26:48.705Z,1.99
2018-03-21T04:27:48.629Z,1.99
2018-03-21T04:28:48.617Z,2.00
2018-03-21T04:29:48.588Z,2.03
2018-03-21T04:30:48.562Z,1.95
2018-03-21T04:31:48.541Z,2.03
2018-03-21T04:32:48.523Z,1.95
2018-03-21T04:33:48.493Z,2.01
2018-03-21T04:34:48.470Z,1.95
2018-03-21T04:35:48.449Z,1.99
2018-03-21T04:36:48.476Z,1.97
2018-03-21T04:37:48.407Z,1.93
2018-03-21T04:38:48.441Z,2.01
2018-03-21T04:39:48.360Z,2.07
2018-03-21T04:40:48.376Z,2.06
2018-03-21T04:41:48.312Z,2.01
2018-03-21T04:42:48.385Z,2.06
2018-03-21T04:43:48.263Z,2.01
2018-03-21T04:44:48.292Z,2.01
2018-03-21T04:45:48.214Z,2.01
2018-03-21T04:46:48.252Z,1.97
2018-03-21T04:47:48.179Z,2.01
2018-03-21T04:48:48.201Z,2.00
2018-03-21T04:49:48.131Z,2.01
2018-03-21T04:50:48.161Z,2.04
2018-03-21T04:51:48.080Z,2.00
2018-03-21T04:52:48.163Z,1.97
2018-03-21T04:53:48.041Z,1.85
2018-03-21T04:54:48.063Z,1.80
2018-03-21T04:55:47.987Z,1.81
2018-03-21T04:56:47.970Z,1.89
2018-03-21T04:57:47.941Z,1.81
2018-03-21T04:58:47.920Z,1.81
2018-03-21T04:59:47.901Z,1.89
2018-03-21T05:00:47.871Z,1.84
2018-03-21T05:01:47.847Z,1.82
2018-03-21T05:02:47.824Z,1.82
2018-03-21T05:03:47.809Z,1.91
2018-03-21T05:04:47.779Z,1.87
2018-03-21T05:05:47.759Z,1.91
2018-03-21T05:06:47.735Z,1.82
2018-03-21T05:07:47.709Z,1.89
2018-03-21T05:08:47.691Z,1.95
2018-03-21T05:09:47.668Z,1.92
2018-03-21T05:10:47.641Z,2.00
2018-03-21T05:11:47.619Z,1.85
2018-03-21T05:12:47.601Z,1.95
2018-03-21T05:13:47.578Z,1.95
2018-03-21T05:14:47.550Z,1.81
2018-03-21T05:15:47.530Z,1.81
2018-03-21T05:16:47.501Z,1.87
2018-03-21T05:17:47.484Z,1.82
2018-03-21T05:18:47.459Z,1.73
2018-03-21T05:19:47.445Z,1.75
2018-03-21T05:20:47.408Z,1.77
2018-03-21T05:21:47.388Z,1.78
2018-03-21T05:22:47.361Z,1.71
2018-03-21T05:23:47.350Z,1.77
2018-03-21T05:24:47.320Z,1.89
2018-03-21T05:25:47.292Z,1.78
2018-03-21T05:26:47.269Z,1.82
2018-03-21T05:27:47.248Z,1.82
2018-03-21T05:28:47.220Z,1.84
2018-03-21T05:29:47.197Z,1.77
2018-03-21T05:30:47.184Z,1.77
2018-03-21T05:31:47.166Z,1.85
2018-03-21T05:32:47.135Z,1.82
2018-03-21T05:33:47.107Z,1.80
2018-03-21T05:34:47.084Z,1.91
2018-03-21T05:35:47.067Z,1.85
2018-03-21T05:36:47.040Z,1.89
2018-03-21T05:37:47.016Z,1.78
2018-03-21T05:38:46.991Z,1.84
2018-03-21T05:39:46.970Z,1.77
2018-03-21T05:40:46.948Z,1.80
2018-03-21T05:41:46.931Z,1.78
2018-03-21T05:42:46.900Z,1.80
2018-03-21T05:43:46.878Z,1.78
2018-03-21T05:44:46.853Z,1.74
2018-03-21T05:45:46.829Z,1.67
2018-03-21T05:46:46.811Z,1.69
2018-03-21T05:47:46.788Z,1.60
2018-03-21T05:48:46.769Z,1.67
2018-03-21T05:49:46.739Z,1.66
2018-03-21T05:50:46.718Z,1.71
2018-03-21T05:51:46.692Z,1.69
2018-03-21T05:52:46.670Z,1.67
2018-03-21T05:53:46.643Z,1.62
2018-03-21T05:54:46.630Z,1.63
2018-03-21T05:55:46.598Z,1.75
2018-03-21T05:56:46.626Z,1.78
2018-03-21T05:57:46.560Z,1.80
2018-03-21T05:58:46.529Z,1.77
2018-03-21T05:59:46.509Z,1.80
2018-03-21T06:00:46.488Z,1.73
2018-03-21T06:01:46.459Z,1.78
2018-03-21T06:02:46.440Z,1.77
2018-03-21T06:03:46.415Z,1.80
2018-03-21T06:04:46.398Z,1.74
2018-03-21T06:05:46.372Z,1.75
2018-03-21T06:06:46.344Z,1.77
2018-03-21T06:07:46.321Z,1.77
2018-03-21T06:08:46.305Z,1.75
2018-03-21T06:09:46.284Z,1.78
2018-03-21T06:10:46.259Z,1.85
2018-03-21T06:11:46.230Z,1.80
2018-03-21T06:12:46.207Z,1.87
2018-03-21T06:13:46.190Z,1.75
2018-03-21T06:14:46.165Z,1.59
2018-03-21T06:15:46.148Z,1.59
2018-03-21T06:16:46.119Z,1.31
2018-03-21T06:17:46.098Z,1.23
2018-03-21T06:18:46.069Z,1.20
2018-03-21T06:19:46.050Z,1.06
2018-03-21T06:20:46.026Z,0.99
2018-03-21T06:21:46.000Z,1.00
2018-03-21T06:22:45.980Z,1.08
2018-03-21T06:23:45.958Z,0.94
2018-03-21T06:24:45.935Z,0.73
2018-03-21T06:25:45.909Z,0.69
2018-03-21T06:26:45.893Z,0.62
2018-03-21T06:27:45.868Z,0.59
2018-03-21T06:28:45.842Z,0.63
2018-03-21T06:29:45.818Z,0.67
2018-03-21T06:30:45.796Z,0.69
2018-03-21T06:31:45.770Z,0.64
2018-03-21T06:32:45.748Z,0.60
2018-03-21T06:33:45.725Z,0.62
2018-03-21T06:34:45.699Z,0.59
2018-03-21T06:35:45.679Z,0.63
2018-03-21T06:36:45.651Z,0.85
2018-03-21T06:37:45.627Z,0.98
2018-03-21T06:38:45.610Z,1.05
2018-03-21T06:39:45.581Z,1.17
2018-03-21T06:40:45.559Z,1.17
2018-03-21T06:41:45.589Z,1.27
2018-03-21T06:42:45.512Z,1.21
2018-03-21T06:43:45.542Z,1.21
2018-03-21T06:44:45.463Z,1.23
2018-03-21T06:45:45.542Z,1.28
2018-03-21T06:46:45.422Z,1.18
2018-03-21T06:47:45.390Z,1.18
2018-03-21T06:48:45.367Z,1.17
2018-03-21T06:49:45.501Z,0.92
2018-03-21T06:50:45.327Z,0.96
2018-03-21T06:51:45.449Z,0.90
2018-03-21T06:52:45.272Z,1.03
2018-03-21T06:53:45.358Z,1.05
2018-03-21T06:54:45.230Z,1.17
2018-03-21T06:55:45.220Z,1.20
2018-03-21T06:56:45.180Z,1.21
2018-03-21T06:57:45.210Z,1.16
2018-03-21T06:58:45.140Z,1.02
2018-03-21T06:59:45.115Z,0.96
2018-03-21T07:00:45.090Z,0.98
2018-03-21T07:01:45.088Z,0.98
2018-03-21T07:02:45.044Z,1.03
2018-03-21T07:03:45.015Z,0.99
2018-03-21T07:04:44.991Z,1.13
2018-03-21T07:05:44.979Z,1.21
2018-03-21T07:06:44.949Z,1.38
2018-03-21T07:07:44.925Z,1.38
2018-03-21T07:08:44.899Z,1.44
2018-03-21T07:09:44.929Z,1.38
2018-03-21T07:10:44.852Z,1.49
2018-03-21T07:11:44.842Z,1.45
2018-03-21T07:12:44.805Z,1.48
2018-03-21T07:13:44.783Z,1.53
2018-03-21T07:14:44.759Z,1.62
2018-03-21T07:15:44.735Z,1.60
2018-03-21T07:16:44.721Z,1.59
2018-03-21T07:17:44.687Z,1.62
2018-03-21T07:18:44.669Z,1.64
2018-03-21T07:19:44.641Z,1.67
2018-03-21T07:20:44.621Z,1.73
2018-03-21T07:21:44.600Z,1.82
2018-03-21T07:22:44.574Z,1.87
2018-03-21T07:23:44.551Z,1.77
2018-03-21T07:24:44.532Z,1.80
2018-03-21T07:25:44.513Z,1.92
2018-03-21T07:26:44.481Z,1.87
2018-03-21T07:27:44.458Z,1.77
2018-03-21T07:28:44.433Z,1.87
2018-03-21T07:29:44.410Z,1.87
2018-03-21T07:30:44.391Z,1.89
2018-03-21T07:31:44.363Z,1.81
2018-03-21T07:32:44.341Z,1.78
2018-03-21T07:33:44.318Z,1.80
2018-03-21T07:34:44.292Z,1.91
2018-03-21T07:35:44.270Z,1.92
2018-03-21T07:36:44.251Z,1.78
2018-03-21T07:37:44.233Z,1.80
2018-03-21T07:38:44.207Z,1.82
2018-03-21T07:39:44.180Z,1.89
2018-03-21T07:40:44.158Z,1.95
2018-03-21T07:41:44.135Z,1.97
2018-03-21T07:42:44.109Z,2.01
2018-03-21T07:43:44.085Z,2.00
2018-03-21T07:44:44.063Z,2.00
2018-03-21T07:45:44.040Z,2.12
2018-03-21T07:46:44.020Z,2.04
2018-03-21T07:47:44.004Z,2.17
2018-03-21T07:48:43.973Z,2.22
2018-03-21T07:49:43.949Z,2.33
2018-03-21T07:50:43.933Z,2.32
2018-03-21T07:51:43.911Z,2.50
2018-03-21T07:52:43.879Z,2.50
2018-03-21T07:53:43.860Z,2.60
2018-03-21T07:54:43.840Z,2.55
2018-03-21T07:55:43.811Z,2.55
2018-03-21T07:56:43.856Z,2.53
2018-03-21T07:57:43.768Z,2.65
2018-03-21T07:58:43.748Z,2.57
2018-03-21T07:59:43.731Z,2.60
2018-03-21T08:00:43.705Z,2.51
2018-03-21T08:01:43.678Z,2.48
2018-03-21T08:02:43.654Z,2.50
2018-03-21T08:03:43.630Z,2.47
2018-03-21T08:04:43.606Z,2.53
2018-03-21T08:05:43.582Z,2.48
2018-03-21T08:06:43.570Z,2.48
2018-03-21T08:07:43.545Z,2.42
2018-03-21T08:08:43.519Z,2.47
2018-03-21T08:09:43.496Z,2.57
2018-03-21T08:10:43.472Z,2.45
2018-03-21T08:11:43.450Z,2.36
2018-03-21T08:12:43.431Z,2.33
2018-03-21T08:13:43.410Z,2.36
2018-03-21T08:14:43.393Z,2.18
2018-03-21T08:15:43.361Z,2.29
2018-03-21T08:16:43.339Z,2.21
2018-03-21T08:17:43.316Z,2.28
2018-03-21T08:18:43.295Z,2.33
2018-03-21T08:19:43.271Z,2.17
2018-03-21T08:20:43.255Z,2.07
2018-03-21T08:21:43.233Z,2.12
2018-03-21T08:22:43.211Z,2.11
2018-03-21T08:23:43.181Z,2.01
2018-03-21T08:24:43.160Z,2.11
2018-03-21T08:25:43.140Z,2.36
2018-03-21T08:26:43.118Z,2.30
2018-03-21T08:27:43.098Z,2.30
2018-03-21T08:28:43.070Z,2.45
2018-03-21T08:29:43.046Z,2.45
2018-03-21T08:30:43.023Z,2.58
2018-03-21T08:31:43.003Z,2.63
2018-03-21T08:32:42.980Z,2.61
2018-03-21T08:33:42.976Z,2.63
2018-03-21T08:34:42.937Z,2.84
2018-03-21T08:35:42.919Z,2.94
2018-03-21T08:36:42.891Z,3.02
2018-03-21T08:37:42.874Z,3.07
2018-03-21T08:38:42.851Z,3.20
2018-03-21T08:39:42.831Z,3.22
2018-03-21T08:40:42.803Z,3.32
2018-03-21T08:41:42.791Z,3.48
2018-03-21T08:42:42.760Z,2.97
2018-03-21T08:43:42.743Z,2.97
2018-03-21T08:44:42.720Z,3.00
2018-03-21T08:45:42.691Z,3.00
2018-03-21T08:46:42.677Z,3.05
2018-03-21T08:47:42.650Z,3.09
2018-03-21T08:48:42.626Z,2.99
2018-03-21T08:49:42.636Z,2.76
2018-03-21T08:50:42.585Z,2.58
2018-03-21T08:51:42.560Z,2.51
2018-03-21T08:52:42.540Z,2.61
2018-03-21T08:53:42.518Z,2.61
2018-03-21T08:54:42.499Z,2.84
2018-03-21T08:55:42.484Z,2.97
2018-03-21T08:56:42.510Z,2.99
2018-03-21T08:57:42.434Z,3.12
2018-03-21T08:58:42.510Z,3.20
2018-03-21T08:59:42.392Z,3.17
2018-03-21T09:00:42.414Z,3.18
2018-03-21T09:01:42.343Z,3.05
2018-03-21T09:02:42.420Z,3.05
2018-03-21T09:03:42.300Z,3.05
2018-03-21T09:04:42.375Z,3.14
2018-03-21T09:05:42.260Z,3.27
2018-03-21T09:06:42.235Z,3.48
2018-03-21T09:07:42.228Z,3.51
2018-03-21T09:08:42.289Z,3.59
2018-03-21T09:09:42.171Z,3.63
2018-03-21T09:10:42.295Z,3.92
2018-03-21T09:11:42.123Z,3.70
2018-03-21T09:12:42.136Z,3.17
2018-03-21T09:13:42.086Z,3.25
2018-03-21T09:14:42.063Z,3.30
2018-03-21T09:15:42.044Z,3.87
2018-03-21T09:16:42.220Z,4.85
2018-03-21T09:17:41.995Z,4.94
2018-03-21T09:18:42.085Z,4.96
2018-03-21T09:19:41.970Z,4.96
2018-03-21T09:20:41.939Z,4.85
2018-03-21T09:21:41.919Z,4.82
2018-03-21T09:22:41.893Z,4.79
2018-03-21T09:23:41.880Z,4.64
2018-03-21T09:24:41.855Z,4.61
2018-03-21T09:25:41.838Z,4.78
2018-03-21T09:26:41.814Z,4.74
2018-03-21T09:27:41.789Z,4.96
2018-03-21T09:28:41.919Z,5.03
2018-03-21T09:29:41.751Z,5.00
2018-03-21T09:30:41.729Z,4.91
2018-03-21T09:31:41.724Z,4.86
2018-03-21T09:32:41.686Z,4.91
2018-03-21T09:33:41.722Z,4.91
2018-03-21T09:34:41.649Z,4.77
2018-03-21T09:35:41.630Z,4.89
2018-03-21T09:36:41.604Z,4.86
2018-03-21T09:37:41.585Z,4.82
2018-03-21T09:38:41.564Z,4.82
2018-03-21T09:39:41.540Z,4.86
2018-03-21T09:40:41.518Z,4.78
2018-03-21T09:41:41.510Z,4.51
2018-03-21T09:42:41.479Z,4.49
2018-03-21T09:43:41.467Z,4.72
2018-03-21T09:44:41.449Z,4.96
2018-03-21T09:45:41.429Z,5.06
2018-03-21T09:46:41.397Z,4.79
2018-03-21T09:47:41.374Z,4.89
2018-03-21T09:48:41.425Z,4.78
2018-03-21T09:49:41.353Z,4.78
2018-03-21T09:50:41.313Z,5.44
2018-03-21T09:51:41.296Z,5.80
2018-03-21T09:52:41.279Z,6.61
2018-03-21T09:53:41.254Z,7.25
2018-03-21T09:54:41.241Z,7.24
2018-03-21T09:55:41.213Z,7.18
2018-03-21T09:56:41.193Z,8.16
2018-03-21T09:57:41.179Z,7.78
2018-03-21T09:58:41.156Z,7.84
2018-03-21T09:59:41.140Z,8.67
2018-03-21T10:00:41.158Z,8.72
2018-03-21T10:01:41.107Z,8.44
2018-03-21T10:02:41.099Z,8.39
2018-03-21T10:03:41.071Z,7.92
2018-03-21T10:04:41.054Z,7.81
2018-03-21T10:05:41.031Z,8.13
2018-03-21T10:06:41.057Z,8.04
2018-03-21T10:07:41.003Z,7.99
2018-03-21T10:08:41.040Z,7.40
2018-03-21T10:09:40.961Z,7.04
2018-03-21T10:10:40.942Z,6.78
2018-03-21T10:11:40.923Z,6.53
2018-03-21T10:12:40.911Z,6.28
2018-03-21T10:13:40.901Z,6.34
2018-03-21T10:14:40.871Z,6.25
2018-03-21T10:15:40.852Z,6.38
2018-03-21T10:16:40.904Z,6.24
2018-03-21T10:17:40.818Z,6.05
2018-03-21T10:18:40.807Z,5.98
2018-03-21T10:19:40.782Z,5.87
2018-03-21T10:20:40.765Z,5.95
2018-03-21T10:21:40.740Z,6.03
2018-03-21T10:22:40.726Z,6.11
2018-03-21T10:23:40.772Z,6.24
2018-03-21T10:24:40.687Z,6.18
2018-03-21T10:25:40.661Z,6.24
2018-03-21T10:26:40.650Z,6.25
2018-03-21T10:27:40.628Z,6.45
2018-03-21T10:28:40.609Z,6.40
2018-03-21T10:29:40.589Z,6.53
2018-03-21T10:30:40.653Z,6.64
2018-03-21T10:31:40.559Z,6.52
2018-03-21T10:32:40.528Z,6.56
2018-03-21T10:33:40.510Z,6.60
2018-03-21T10:34:40.545Z,6.67
2018-03-21T10:35:40.480Z,6.82
2018-03-21T10:36:40.530Z,6.97
2018-03-21T10:37:40.430Z,7.07
2018-03-21T10:38:40.420Z,7.10
2018-03-21T10:39:40.405Z,7.25
2018-03-21T10:40:40.390Z,7.28
2018-03-21T10:41:40.361Z,7.19
2018-03-21T10:42:40.515Z,7.11
2018-03-21T10:43:40.322Z,7.08
2018-03-21T10:44:40.301Z,7.04
2018-03-21T10:45:40.281Z,6.74
2018-03-21T10:46:40.260Z,7.07
2018-03-21T10:47:40.251Z,7.29
2018-03-21T10:48:40.238Z,7.36
2018-03-21T10:49:40.205Z,7.39
2018-03-21T10:50:40.187Z,7.34
2018-03-21T10:51:40.167Z,7.13
2018-03-21T10:52:40.149Z,7.07
2018-03-21T10:53:40.128Z,6.92
2018-03-21T10:54:40.110Z,6.85
2018-03-21T10:55:40.090Z,6.68
2018-03-21T10:56:40.069Z,6.75
2018-03-21T10:57:40.059Z,6.70
2018-03-21T10:58:40.033Z,6.67
2018-03-21T10:59:40.013Z,6.61
2018-03-21T11:00:39.998Z,6.53
2018-03-21T11:01:39.979Z,6.40
2018-03-21T11:02:39.960Z,6.08
2018-03-21T11:03:39.941Z,5.95
2018-03-21T11:04:39.920Z,5.77
2018-03-21T11:05:39.901Z,5.48
2018-03-21T11:06:39.883Z,5.58
2018-03-21T11:07:39.920Z,5.61
2018-03-21T11:08:39.839Z,5.72
2018-03-21T11:09:39.829Z,5.61
2018-03-21T11:10:39.800Z,5.61
2018-03-21T11:11:39.796Z,5.77
2018-03-21T11:12:39.765Z,5.73
2018-03-21T11:13:39.741Z,5.76
2018-03-21T11:14:39.720Z,5.79
2018-03-21T11:15:39.713Z,5.69
2018-03-21T11:16:39.685Z,5.72
2018-03-21T11:17:39.661Z,5.41
2018-03-21T11:18:39.654Z,5.36
2018-03-21T11:19:39.623Z,5.43
2018-03-21T11:20:39.602Z,5.41
2018-03-21T11:21:39.581Z,5.36
2018-03-21T11:22:39.562Z,5.41
2018-03-21T11:23:39.543Z,5.37
2018-03-21T11:24:39.520Z,5.70
2018-03-21T11:25:39.504Z,5.84
2018-03-21T11:26:39.490Z,5.85
2018-03-21T11:27:39.463Z,5.80
2018-03-21T11:28:39.438Z,5.70
2018-03-21T11:29:39.420Z,5.65
2018-03-21T11:30:39.413Z,5.76
2018-03-21T11:31:39.380Z,6.00
2018-03-21T11:32:39.360Z,6.03
2018-03-21T11:33:39.340Z,6.15
2018-03-21T11:34:39.320Z,6.21
2018-03-21T11:35:39.299Z,6.25
2018-03-21T11:36:39.283Z,6.34
2018-03-21T11:37:39.267Z,6.46
2018-03-21T11:38:39.240Z,6.55
2018-03-21T11:39:39.220Z,6.86
2018-03-21T11:40:39.199Z,7.25
2018-03-21T11:41:39.184Z,7.49
2018-03-21T11:42:39.164Z,7.36
2018-03-21T11:43:39.143Z,7.11
2018-03-21T11:44:39.123Z,7.64
2018-03-21T11:45:39.104Z,8.02
2018-03-21T11:46:39.102Z,8.14
2018-03-21T11:47:39.069Z,7.66
2018-03-21T11:48:39.050Z,7.74
2018-03-21T11:49:39.035Z,7.83
2018-03-21T11:50:39.014Z,7.95
2018-03-21T11:51:39.001Z,8.49
2018-03-21T11:52:38.979Z,8.53
2018-03-21T11:53:38.968Z,8.63
2018-03-21T11:54:38.954Z,8.60
2018-03-21T11:55:38.922Z,8.92
2018-03-21T11:56:38.912Z,8.95
2018-03-21T11:57:38.886Z,9.06
2018-03-21T11:58:38.980Z,8.81
2018-03-21T11:59:38.857Z,8.62
2018-03-21T12:00:38.835Z,8.85
2018-03-21T12:01:38.819Z,8.60
2018-03-21T12:02:38.810Z,8.49
2018-03-21T12:03:38.786Z,7.86
2018-03-21T12:04:38.766Z,7.36
2018-03-21T12:05:38.751Z,7.55
2018-03-21T12:06:38.749Z,7.69
2018-03-21T12:07:38.716Z,8.21
2018-03-21T12:08:38.737Z,8.56
2018-03-21T12:09:38.681Z,8.38
2018-03-21T12:10:38.670Z,7.95
2018-03-21T12:11:38.646Z,8.26
2018-03-21T12:12:38.636Z,8.57
2018-03-21T12:13:38.610Z,8.63
2018-03-21T12:14:38.623Z,8.63
2018-03-21T12:15:38.581Z,8.56
2018-03-21T12:16:38.564Z,8.37
2018-03-21T12:17:38.542Z,8.28
2018-03-21T12:18:38.530Z,7.46
2018-03-21T12:19:38.510Z,7.49
2018-03-21T12:20:38.492Z,7.29
2018-03-21T12:21:38.471Z,7.29
2018-03-21T12:22:38.455Z,7.19
2018-03-21T12:23:38.447Z,7.22
2018-03-21T12:24:38.422Z,6.79
2018-03-21T12:25:38.408Z,6.93
2018-03-21T12:26:38.380Z,6.67
2018-03-21T12:27:38.362Z,6.55
2018-03-21T12:28:38.346Z,6.64
2018-03-21T12:29:38.332Z,6.79
2018-03-21T12:30:38.313Z,6.91
2018-03-21T12:31:38.295Z,6.82
2018-03-21T12:32:38.268Z,6.92
2018-03-21T12:33:38.252Z,6.88
2018-03-21T12:34:38.241Z,6.89
2018-03-21T12:35:38.219Z,6.96
2018-03-21T12:36:38.199Z,7.04
2018-03-21T12:37:38.181Z,7.04
2018-03-21T12:38:38.159Z,7.01
2018-03-21T12:39:38.139Z,6.99
2018-03-21T12:40:38.133Z,6.96
2018-03-21T12:41:38.101Z,6.83
2018-03-21T12:42:38.093Z,6.21
2018-03-21T12:43:38.062Z,6.15
2018-03-21T12:44:38.238Z,6.16
2018-03-21T12:45:38.030Z,6.18
2018-03-21T12:46:38.006Z,6.38
2018-03-21T12:47:37.987Z,6.43
2018-03-21T12:48:37.970Z,6.61
2018-03-21T12:49:37.950Z,6.52
2018-03-21T12:50:37.961Z,6.55
2018-03-21T12:51:37.908Z,6.60
2018-03-21T12:52:37.906Z,6.61
2018-03-21T12:53:37.874Z,6.56
2018-03-21T12:54:37.858Z,6.79
2018-03-21T12:55:37.882Z,6.65
2018-03-21T12:56:37.818Z,6.21
2018-03-21T12:57:37.791Z,6.25
2018-03-21T12:58:37.780Z,6.00
2018-03-21T12:59:37.753Z,6.16
2018-03-21T13:00:37.739Z,6.18
2018-03-21T13:01:37.727Z,6.56
2018-03-21T13:02:37.705Z,7.01
2018-03-21T13:03:37.677Z,7.34
2018-03-21T13:04:37.758Z,7.66
2018-03-21T13:05:37.643Z,7.83
2018-03-21T13:06:37.620Z,8.21
2018-03-21T13:07:37.656Z,8.49
2018-03-21T13:08:37.643Z,8.53
2018-03-21T13:09:37.566Z,8.86
2018-03-21T13:10:37.545Z,8.67
2018-03-21T13:11:37.530Z,8.23
2018-03-21T13:12:37.658Z,8.26
2018-03-21T13:13:37.545Z,8.19
2018-03-21T13:14:37.546Z,7.78
2018-03-21T13:15:37.460Z,7.69
2018-03-21T13:16:37.442Z,7.94
2018-03-21T13:17:37.419Z,8.34
2018-03-21T13:18:37.552Z,7.81